Flight Track Log - Related Links

Times and Time Zones

All times are in EDT time to prevent confusion due to time zone crossing. See the N841DS flight status page for this flight to view local times or setup timezone preferences in your user account.

Time Position Orientation Groundspeed Altitude Reporting Facility
EDT Latitude Longitude Course Direction KTS MPH feet Rate Location/Type
Fri 04:09:44 PM 36.2722 -88.2614 123° Southeast 135 155 3,700  Level Memphis Center
Fri 04:10:44 PM 36.2550 -88.2286 123° Southeast 120 138 4,300 600 Climbing Memphis Center
Fri 04:11:44 PM 36.2378 -88.1956 123° Southeast 120 138 4,900 550 Climbing Memphis Center
Fri 04:12:44 PM 36.2183 -88.1600 124° Southeast 120 138 5,400 450 Climbing Memphis Center
Fri 04:13:44 PM 36.1989 -88.1297 129° Southeast 120 138 5,800 300 Climbing Memphis Center
Fri 04:14:00 PM 36.2278 -88.1852 127° Southeast  Level FlightAware Approximate
Fri 04:14:44 PM 36.1794 -88.0917 122° Southeast 126 145 6,000  Level Memphis Center
Fri 04:15:00 PM 36.2056 -88.1458 123° Southeast  Level FlightAware Approximate
Fri 04:15:44 PM 36.1558 -88.0486 124° Southeast 142 163 6,000  Level Memphis Center
Fri 04:16:44 PM 36.1319 -88.0031 123° Southeast 153 176 6,000  Level Memphis Center
Fri 04:17:44 PM 36.1103 -87.9600 122° Southeast 148 170 6,000  Level Memphis Center
Fri 04:18:44 PM 36.0867 -87.9169 124° Southeast 148 170 6,000  Level Memphis Center
Fri 04:19:44 PM 36.0628 -87.8767 126° Southeast 148 170 6,000 150 Level Memphis Center
Fri 04:20:44 PM 36.0389 -87.8286 122° Southeast 148 170 6,300 300 Climbing Memphis Center
Fri 04:21:44 PM 36.0153 -87.7883 126° Southeast 148 170 6,600 200 Climbing Memphis Center
Fri 04:22:44 PM 35.9956 -87.7478 121° Southeast 148 170 6,700 100 Climbing Memphis Center
Fri 04:23:44 PM 35.9717 -87.7075 126° Southeast 148 170 6,800 150 Climbing Memphis Center
Fri 04:24:44 PM 35.9500 -87.6672 124° Southeast 148 170 7,000 100 Climbing Memphis Center
Fri 04:25:44 PM 35.9283 -87.6269 124° Southeast 148 170 7,000  Level Memphis Center
Fri 04:26:44 PM 35.9044 -87.5842 125° Southeast 148 170 7,000 50 Level Memphis Center
Fri 04:27:44 PM 35.8828 -87.5439 124° Southeast 148 170 7,100  Climbing Memphis Center
Fri 04:28:44 PM 35.8589 -87.5011 125° Southeast 148 170 7,000 -50 Descending Memphis Center
Fri 04:29:44 PM 35.8369 -87.4608 124° Southeast 148 170 7,000  Level Memphis Center
Fri 04:30:44 PM 35.8233 -87.4128 109° East 148 170 7,000  Level Memphis Center
Fri 04:31:44 PM 35.8097 -87.3647 109° East 150 173 7,000  Level Memphis Center
Fri 04:32:44 PM 35.7958 -87.3114 108° East 150 173 7,000  Level Memphis Center
Fri 04:33:44 PM 35.7844 -87.2683 108° East 170 196 7,000  Level Memphis Center
Fri 04:34:44 PM 35.7728 -87.2175 106° East 163 188 7,000  Level Memphis Center
Fri 04:35:44 PM 35.7569 -87.1697 112° Southeast 153 176 7,000  Level Memphis Center
Fri 04:36:44 PM 35.7472 -87.1189 103° East 140 161 7,000  Level Memphis Center
Fri 04:37:44 PM 35.7314 -87.0733 113° Southeast 145 167 7,000  Level Memphis Center
Fri 04:38:44 PM 35.7194 -87.0203 105° East 150 173 7,000  Level Memphis Center
Fri 04:39:44 PM 35.7058 -86.9722 109° East 150 173 7,000  Level Memphis Center
Fri 04:40:44 PM 35.6897 -86.9217 111° Southeast 150 173 7,000  Level Memphis Center
Fri 04:41:44 PM 35.6778 -86.8686 105° East 150 173 7,000  Level Memphis Center
Fri 04:42:44 PM 35.6658 -86.8181 106° East 150 173 7,000  Level Memphis Center
Fri 04:43:44 PM 35.6500 -86.7675 111° Southeast 150 173 7,000  Level Memphis Center
Fri 04:44:44 PM 35.6358 -86.7169 109° East 150 173 7,000  Level Memphis Center
Fri 04:45:44 PM 35.6242 -86.6692 107° East 150 173 7,000  Level Memphis Center
Fri 04:46:44 PM 35.6122 -86.6211 107° East 150 173 7,000  Level Memphis Center
Fri 04:47:44 PM 35.5981 -86.5706 109° East 150 173 7,000  Level Memphis Center
Fri 04:48:44 PM 35.5842 -86.5228 110° East 145 167 7,000  Level Memphis Center
Fri 04:49:44 PM 35.5725 -86.4800 109° East 151 174 7,000  Level Memphis Center
Fri 04:50:44 PM 35.5583 -86.4319 110° East 151 174 7,000  Level Memphis Center
Fri 04:51:44 PM 35.5383 -86.3897 120° Southeast 144 166 7,000  Level Memphis Center
Fri 04:52:44 PM 35.5181 -86.3472 120° Southeast 139 160 7,000  Level Memphis Center
Fri 04:53:44 PM 35.5022 -86.3072 116° Southeast 139 160 7,000  Level Memphis Center
Fri 04:54:44 PM 35.4822 -86.2675 122° Southeast 139 160 7,000  Level Memphis Center
Fri 04:55:44 PM 35.4642 -86.2250 118° Southeast 139 160 7,000 50 Level Memphis Center
Fri 04:56:44 PM 35.4439 -86.1825 120° Southeast 140 161 7,100 50 Climbing Memphis Center
Fri 04:57:44 PM 35.4239 -86.1428 122° Southeast 140 161 7,100  Level Memphis Center
Fri 04:58:44 PM 35.4056 -86.1006 118° Southeast 135 155 7,100  Level Memphis Center
Fri 04:59:44 PM 35.3856 -86.0583 120° Southeast 135 155 7,100  Level Memphis Center
Fri 05:00:44 PM 35.3653 -86.0161 120° Southeast 135 155 7,100  Level Memphis Center
Fri 05:01:44 PM 35.3469 -85.9736 118° Southeast 135 155 7,100  Level Memphis Center
Fri 05:02:44 PM 35.3267 -85.9314 120° Southeast 135 155 7,100  Level Memphis Center
Fri 05:03:44 PM 35.3086 -85.8892 118° Southeast 135 155 7,100 -4 Level Memphis Center
Fri 05:05:00 PM 35.2818 -85.8342 121° Southeast  Level FlightAware Approximate
Fri 05:12:00 PM 35.1291 -85.5352 119° Southeast  Level FlightAware Approximate
Fri 05:13:00 PM 35.1087 -85.4913 119° Southeast  Level FlightAware Approximate
Fri 05:14:00 PM 35.0884 -85.4473 119° Southeast  Level FlightAware Approximate
Fri 05:15:00 PM 35.0680 -85.4035 120° Southeast  Level FlightAware Approximate
Fri 05:16:00 PM 35.0477 -85.3596 120° Southeast  Level FlightAware Approximate
Fri 05:17:00 PM 35.0273 -85.3157 120° Southeast  Level FlightAware Approximate
Fri 05:18:00 PM 35.0069 -85.2719 120° Southeast  Level FlightAware Approximate
Fri 05:19:00 PM 34.9865 -85.2281 120° Southeast  Level FlightAware Approximate
Fri 05:20:00 PM 34.9660 -85.1843 120° Southeast  Level FlightAware Approximate
Fri 05:21:00 PM 34.9449 -85.1412 125° Southeast  Level FlightAware Approximate
Fri 05:22:00 PM 34.9210 -85.1001 125° Southeast  Level FlightAware Approximate
Fri 05:23:00 PM 34.8970 -85.0591 125° Southeast  Level FlightAware Approximate
Fri 05:24:00 PM 34.8731 -85.0181 125° Southeast  Level FlightAware Approximate
Fri 05:25:00 PM 34.8492 -84.9771 125° Southeast  Level FlightAware Approximate
Fri 05:26:00 PM 34.8260 -84.9354 121° Southeast  Level FlightAware Approximate
Fri 05:27:00 PM 34.8046 -84.8925 121° Southeast  Level FlightAware Approximate
Fri 05:27:10 PM 34.8219 -84.9319 126° Southeast 145 167 7,000  Level Atlanta Center
Fri 05:28:00 PM 34.7795 -84.8526 129° Southeast  Level FlightAware Approximate
Fri 05:28:10 PM 34.7972 -84.8911 126° Southeast 144 166 7,100  Level Atlanta Center
Fri 05:29:00 PM 34.7535 -84.8136 129° Southeast  Level FlightAware Approximate
Fri 05:29:10 PM 34.7725 -84.8506 127° Southeast 144 166 7,000  Level Atlanta Center
Fri 05:30:00 PM 34.7279 -84.7742 126° Southeast  Level FlightAware Approximate
Fri 05:30:10 PM 34.7519 -84.8175 127° Southeast 144 166 7,000  Level Atlanta Center
Fri 05:31:00 PM 34.7035 -84.7336 126° Southeast  Level FlightAware Approximate
Fri 05:31:10 PM 34.7269 -84.7792 128° Southeast 139 160 7,000  Level Atlanta Center
Fri 05:32:00 PM 34.6792 -84.6930 126° Southeast  Level FlightAware Approximate
Fri 05:32:10 PM 34.7106 -84.7489 123° Southeast 139 160 7,000  Level Atlanta Center
Fri 05:33:10 PM 34.6856 -84.7108 129° Southeast 132 152 7,000  Level Atlanta Center
Fri 05:34:10 PM 34.6589 -84.6700 128° Southeast 132 152 7,000  Level Atlanta Center
Fri 05:35:10 PM 34.6361 -84.6294 124° Southeast 132 152 7,000  Level Atlanta Center
Fri 05:36:10 PM 34.6111 -84.5939 131° Southeast 132 152 7,000  Level Atlanta Center
Fri 05:37:10 PM 34.5883 -84.5561 126° Southeast 137 158 7,000  Level Atlanta Center
Fri 05:38:10 PM 34.5633 -84.5181 129° Southeast 137 158 7,000  Level Atlanta Center
Fri 05:39:10 PM 34.5428 -84.4825 125° Southeast 137 158 7,000  Level Atlanta Center
Fri 05:40:10 PM 34.5178 -84.4447 129° Southeast 132 152 7,000 50 Level Atlanta Center
Fri 05:41:10 PM 34.5014 -84.4017 115° Southeast 137 158 7,100  Climbing Atlanta Center
Fri 05:42:10 PM 34.5119 -84.3514 76° East 140 161 7,000 -50 Descending Atlanta Center
Fri 05:43:10 PM 34.5225 -84.2983 76° East 154 177 7,000  Level Atlanta Center
Fri 05:44:10 PM 34.5308 -84.2456 79° East 161 185 7,000  Level Atlanta Center
Fri 05:45:10 PM 34.5392 -84.1875 80° East 161 185 7,000  Level Atlanta Center
Fri 05:46:10 PM 34.5497 -84.1372 76° East 161 185 7,000  Level Atlanta Center
Fri 05:47:10 PM 34.5603 -84.0867 76° East 161 185 7,000  Level Atlanta Center
Fri 05:48:10 PM 34.5686 -84.0311 80° East 161 185 7,000  Level Atlanta Center
Fri 05:49:10 PM 34.5769 -83.9808 79° East 161 185 7,000  Level Atlanta Center
Fri 05:50:10 PM 34.5872 -83.9303 76° East 156 180 7,000  Level Atlanta Center
Fri 05:51:10 PM 34.5956 -83.8772 79° East 156 180 7,000  Level Atlanta Center
Fri 05:52:10 PM 34.6039 -83.8267 79° East 156 180 7,000  Level Atlanta Center
Fri 05:53:10 PM 34.6122 -83.7839 77° East 156 180 7,000  Level Atlanta Center
Fri 05:54:10 PM 34.6203 -83.7283 80° East 156 180 7,000  Level Atlanta Center
Fri 05:55:10 PM 34.6306 -83.6778 76° East 161 185 7,000  Level Atlanta Center
Fri 05:56:10 PM 34.6389 -83.6247 79° East 161 185 7,000  Level Atlanta Center
Fri 05:57:10 PM 34.6492 -83.5767 75° East 154 177 7,000  Level Atlanta Center
Fri 05:58:10 PM 34.6550 -83.5211 83° East 154 177 7,000  Level Atlanta Center
Fri 05:59:10 PM 34.6653 -83.4681 77° East 149 171 7,000  Level Atlanta Center
Fri 06:00:10 PM 34.6756 -83.4175 76° East 149 171 7,000  Level Atlanta Center
Fri 06:01:10 PM 34.6814 -83.3669 82° East 144 166 7,000  Level Atlanta Center
Fri 06:02:10 PM 34.6875 -83.3139 82° East 144 166 7,000  Level Atlanta Center
Fri 06:03:10 PM 34.6872 -83.2633 90° East 144 166 7,000  Level Atlanta Center
Fri 06:04:10 PM 34.6889 -83.2153 88° East 139 160 7,000  Level Atlanta Center
Fri 06:05:10 PM 34.6928 -83.1622 85° East 139 160 7,000  Level Atlanta Center
Fri 06:06:10 PM 34.7008 -83.1117 79° East 144 166 7,000  Level Atlanta Center
Fri 06:07:10 PM 34.7211 -83.0608 64° Northeast 146 168 7,000  Level Atlanta Center
Fri 06:08:10 PM 34.7375 -83.0150 66° East 151 174 7,000  Level Atlanta Center
Fri 06:09:10 PM 34.7539 -82.9694 66° East 151 174 7,000  Level Atlanta Center
Fri 06:10:10 PM 34.7742 -82.9161 65° Northeast 156 180 7,000  Level Atlanta Center
Fri 06:11:10 PM 34.7925 -82.8653 66° East 156 180 7,000  Level Atlanta Center
Fri 06:12:10 PM 34.8108 -82.8194 64° Northeast 156 180 7,000  Level Atlanta Center
Fri 06:13:10 PM 34.8311 -82.7683 64° Northeast 156 180 7,000  Level Atlanta Center
Fri 06:14:10 PM 34.8494 -82.7175 66° East 156 180 7,000  Level Atlanta Center
Fri 06:16:00 PM 34.8885 -82.6396 59° Northeast  Level FlightAware Approximate
Fri 06:23:00 PM 35.0174 -82.3264 68° East  Level FlightAware Approximate
Fri 06:24:00 PM 35.0323 -82.2800 69° East  Level FlightAware Approximate
Fri 06:25:00 PM 35.0473 -82.2335 69° East  Level FlightAware Approximate
Fri 06:26:00 PM 35.0622 -82.1870 69° East  Level FlightAware Approximate
Fri 06:27:00 PM 35.0771 -82.1405 69° East  Level FlightAware Approximate
Fri 06:28:00 PM 35.0920 -82.0940 69° East  Level FlightAware Approximate
Fri 06:29:00 PM 35.1068 -82.0475 69° East  Level FlightAware Approximate
Fri 06:30:00 PM 35.1219 -82.0010 68° East  Level FlightAware Approximate
Fri 06:31:00 PM 35.1373 -81.9548 68° East  Level FlightAware Approximate
Fri 06:32:00 PM 35.1527 -81.9085 68° East  Level FlightAware Approximate
Fri 06:33:00 PM 35.1680 -81.8621 70° East  Level FlightAware Approximate
Fri 06:34:00 PM 35.1822 -81.8152 70° East  Level FlightAware Approximate
Fri 06:35:00 PM 35.1962 -81.7682 70° East  Level FlightAware Approximate
Fri 06:36:00 PM 35.2103 -81.7213 70° East  Level FlightAware Approximate

Login

Don't have an account? Register now (free) for customized features, flight alerts, and more!